createdAt,value
2022-10-23T00:01:45.101Z,19.50
2022-10-23T00:04:17.211Z,19.50
2022-10-23T00:06:46.628Z,19.80
2022-10-23T00:09:17.802Z,20.10
2022-10-23T00:11:47.946Z,20.60
2022-10-23T00:14:18.147Z,20.60
2022-10-23T00:16:46.718Z,21.00
2022-10-23T00:19:14.809Z,20.30
2022-10-23T00:21:42.841Z,20.90
2022-10-23T00:24:10.627Z,21.30
2022-10-23T00:26:40.801Z,21.20
2022-10-23T00:29:10.433Z,19.20
2022-10-23T00:31:38.789Z,20.20
2022-10-23T00:34:08.660Z,19.60
2022-10-23T00:36:37.896Z,19.60
2022-10-23T00:39:06.368Z,19.00
2022-10-23T00:41:35.236Z,19.00
2022-10-23T00:44:31.645Z,19.60
2022-10-23T00:47:00.187Z,19.40
2022-10-23T00:49:28.538Z,19.30
2022-10-23T00:52:01.366Z,20.00
2022-10-23T00:54:33.016Z,19.70
2022-10-23T00:57:03.000Z,19.50
2022-10-23T00:59:31.817Z,19.00
2022-10-23T01:02:00.488Z,18.90
2022-10-23T01:04:30.067Z,19.20
2022-10-23T01:06:58.243Z,18.40
2022-10-23T01:09:36.732Z,18.90
2022-10-23T01:12:33.299Z,17.50
2022-10-23T01:15:27.621Z,17.10
2022-10-23T01:18:05.011Z,16.90
2022-10-23T01:20:40.791Z,18.10
2022-10-23T01:23:08.698Z,17.70
2022-10-23T01:26:11.016Z,17.40
2022-10-23T01:28:58.671Z,18.70
2022-10-23T01:31:39.690Z,18.10
2022-10-23T01:34:16.374Z,18.30
2022-10-23T01:36:48.965Z,20.10
2022-10-23T01:39:25.681Z,20.00
2022-10-23T01:42:00.900Z,18.90
2022-10-23T01:44:43.302Z,18.90
2022-10-23T01:47:13.561Z,20.00
2022-10-23T01:49:58.963Z,19.20
2022-10-23T01:52:27.752Z,20.70
2022-10-23T01:55:00.416Z,20.80
2022-10-23T01:57:32.443Z,20.70
2022-10-23T02:00:07.524Z,19.80
2022-10-23T02:02:53.507Z,20.80
2022-10-23T02:05:30.943Z,20.50
2022-10-23T02:08:00.676Z,20.80
2022-10-23T02:11:02.015Z,20.30
2022-10-23T02:13:38.357Z,20.60
2022-10-23T02:16:26.553Z,21.40
2022-10-23T02:19:19.503Z,20.10
2022-10-23T02:22:08.179Z,20.20
2022-10-23T02:24:58.376Z,21.00
2022-10-23T02:27:35.134Z,23.10
2022-10-23T02:30:11.457Z,21.90
2022-10-23T02:32:45.174Z,21.60
2022-10-23T02:35:15.164Z,22.00
2022-10-23T02:37:43.651Z,21.20
2022-10-23T02:40:11.988Z,20.50
2022-10-23T02:43:08.016Z,21.10
2022-10-23T02:45:43.909Z,20.80
2022-10-23T02:48:47.493Z,21.50
2022-10-23T02:51:41.413Z,21.80
2022-10-23T02:54:48.712Z,21.50
2022-10-23T02:57:41.895Z,20.10
2022-10-23T03:00:15.291Z,21.10
2022-10-23T03:02:49.074Z,20.50
2022-10-23T03:05:22.558Z,21.30
2022-10-23T03:07:50.809Z,20.80
2022-10-23T03:10:19.534Z,21.00
2022-10-23T03:12:48.925Z,20.50
2022-10-23T03:15:17.683Z,19.70
2022-10-23T03:17:45.569Z,19.80
2022-10-23T03:22:45.996Z,19.90
2022-10-23T03:25:14.558Z,20.60
2022-10-23T03:27:42.698Z,20.40
2022-10-23T03:30:16.263Z,20.10
2022-10-23T03:32:44.722Z,19.30
2022-10-23T03:35:13.031Z,19.70
2022-10-23T03:37:41.434Z,20.70
2022-10-23T03:40:10.440Z,20.50
2022-10-23T03:42:38.486Z,19.90
2022-10-23T03:45:06.703Z,19.70
2022-10-23T03:47:35.569Z,18.80
2022-10-23T03:50:04.303Z,19.40
2022-10-23T03:55:02.784Z,17.80
2022-10-23T03:57:30.917Z,19.60
2022-10-23T03:59:59.053Z,19.00
2022-10-23T04:04:58.006Z,19.40
2022-10-23T04:07:25.844Z,19.80
2022-10-23T04:09:55.314Z,19.40
2022-10-23T04:12:23.341Z,19.50
2022-10-23T04:14:52.707Z,19.70
2022-10-23T04:17:20.544Z,18.90
2022-10-23T04:19:50.569Z,19.40
2022-10-23T04:22:18.581Z,19.20
2022-10-23T04:24:48.323Z,18.60
2022-10-23T04:27:19.314Z,20.10
2022-10-23T04:29:47.492Z,19.20
2022-10-23T04:32:15.790Z,19.90
2022-10-23T04:34:45.177Z,19.80
2022-10-23T04:37:14.020Z,19.40
2022-10-23T04:39:42.128Z,19.10
2022-10-23T04:42:14.569Z,20.10
2022-10-23T04:44:42.539Z,19.40
2022-10-23T04:47:10.472Z,18.60
2022-10-23T04:49:47.885Z,19.60
2022-10-23T04:52:23.444Z,19.60
2022-10-23T04:55:15.916Z,18.90
2022-10-23T04:57:52.842Z,18.40
2022-10-23T05:00:24.804Z,19.30
2022-10-23T05:02:55.480Z,18.20
2022-10-23T05:05:23.797Z,18.00
2022-10-23T05:08:05.787Z,19.50
2022-10-23T05:10:53.809Z,19.10
2022-10-23T05:13:22.084Z,18.30
2022-10-23T05:15:51.594Z,18.80
2022-10-23T05:18:47.752Z,19.30
2022-10-23T05:21:26.124Z,20.00
2022-10-23T05:23:54.853Z,18.90
2022-10-23T05:26:23.443Z,20.20
2022-10-23T05:28:54.047Z,20.00
2022-10-23T05:31:25.292Z,19.90
2022-10-23T05:33:56.978Z,20.20
2022-10-23T05:36:26.588Z,18.80
2022-10-23T05:38:58.642Z,18.80
2022-10-23T05:43:59.197Z,18.60
2022-10-23T05:46:53.576Z,18.30
2022-10-23T05:49:40.188Z,18.20
2022-10-23T05:52:26.654Z,18.80
2022-10-23T05:55:16.323Z,19.50
2022-10-23T05:57:52.654Z,19.80
2022-10-23T06:00:31.493Z,19.80
2022-10-23T06:03:11.783Z,19.80
2022-10-23T06:05:40.738Z,20.00
2022-10-23T06:08:33.525Z,19.90
2022-10-23T06:11:13.885Z,20.20
2022-10-23T06:13:46.459Z,18.80
2022-10-23T06:16:22.426Z,18.50
2022-10-23T06:18:51.273Z,20.20
2022-10-23T06:21:19.831Z,20.10
2022-10-23T06:23:49.594Z,19.50
2022-10-23T06:26:19.242Z,18.60
2022-10-23T06:29:04.807Z,18.50
2022-10-23T06:31:33.115Z,19.10
2022-10-23T06:34:01.239Z,17.00
2022-10-23T06:36:30.819Z,18.00
2022-10-23T06:39:06.017Z,17.70
2022-10-23T06:42:06.765Z,17.30
2022-10-23T06:44:58.010Z,18.00
2022-10-23T06:47:44.433Z,18.90
2022-10-23T06:50:31.620Z,16.40
2022-10-23T06:53:01.917Z,16.60
2022-10-23T06:55:30.302Z,16.10
2022-10-23T06:57:58.869Z,15.50
2022-10-23T07:00:26.966Z,15.30
2022-10-23T07:02:56.089Z,14.80
2022-10-23T07:05:24.162Z,14.40
2022-10-23T07:07:52.567Z,14.10
2022-10-23T07:10:25.222Z,13.70
2022-10-23T07:13:12.824Z,14.20
2022-10-23T07:15:45.411Z,13.70
2022-10-23T07:18:17.065Z,14.20
2022-10-23T07:21:03.956Z,14.90
2022-10-23T07:23:32.765Z,14.70
2022-10-23T07:26:17.143Z,13.80
2022-10-23T07:28:46.830Z,14.20
2022-10-23T07:31:18.394Z,14.60
2022-10-23T07:34:06.466Z,15.50
2022-10-23T07:39:04.115Z,15.50
2022-10-23T07:41:32.479Z,13.90
2022-10-23T07:44:00.501Z,12.00
2022-10-23T07:46:28.878Z,12.60
2022-10-23T07:48:56.803Z,12.70
2022-10-23T07:51:24.720Z,13.20
2022-10-23T07:53:57.019Z,12.40
2022-10-23T07:56:41.679Z,12.10
2022-10-23T07:59:14.988Z,13.30
2022-10-23T08:01:51.503Z,12.00
2022-10-23T08:04:23.471Z,13.60
2022-10-23T08:07:01.102Z,14.00
2022-10-23T08:09:31.325Z,14.10
2022-10-23T08:11:59.422Z,15.80
2022-10-23T08:14:28.622Z,13.80
2022-10-23T08:16:56.579Z,15.30
2022-10-23T08:19:57.025Z,15.10
2022-10-23T08:22:26.563Z,14.90
2022-10-23T08:24:55.189Z,13.90
2022-10-23T08:27:23.494Z,14.70
2022-10-23T08:29:51.236Z,15.20
2022-10-23T08:32:19.329Z,15.10
2022-10-23T08:34:58.830Z,14.80
2022-10-23T08:37:28.512Z,17.40
2022-10-23T08:39:57.915Z,15.20
2022-10-23T08:42:50.304Z,14.90
2022-10-23T08:45:36.016Z,14.80
2022-10-23T08:48:31.319Z,15.10
2022-10-23T08:51:41.940Z,15.50
2022-10-23T08:54:21.017Z,16.30
2022-10-23T08:56:55.073Z,15.60
2022-10-23T08:59:28.504Z,16.00
2022-10-23T09:02:02.602Z,15.50
2022-10-23T09:04:31.932Z,16.00
2022-10-23T09:07:05.780Z,15.50
2022-10-23T09:10:06.177Z,15.60
2022-10-23T09:12:34.300Z,15.70
2022-10-23T09:15:08.462Z,16.80
2022-10-23T09:17:41.872Z,15.20
2022-10-23T09:20:23.267Z,16.10
2022-10-23T09:22:58.419Z,14.80
2022-10-23T09:25:34.319Z,14.60
2022-10-23T09:28:05.381Z,14.80
2022-10-23T09:30:41.706Z,14.20
2022-10-23T09:33:20.093Z,14.20
2022-10-23T09:36:14.075Z,14.90
2022-10-23T09:38:45.080Z,14.10
2022-10-23T09:41:12.922Z,15.60
2022-10-23T09:43:41.270Z,15.50
2022-10-23T09:46:11.882Z,13.50
2022-10-23T09:48:42.480Z,14.10
2022-10-23T09:51:19.979Z,14.30
2022-10-23T09:53:55.351Z,14.40
2022-10-23T09:56:24.709Z,14.00
2022-10-23T09:59:00.330Z,14.90
2022-10-23T10:01:32.780Z,13.80
2022-10-23T10:04:39.352Z,14.50
2022-10-23T10:07:19.605Z,13.60
2022-10-23T10:09:48.096Z,13.40
2022-10-23T10:12:50.040Z,13.60
2022-10-23T10:15:34.778Z,13.70
2022-10-23T10:18:25.785Z,14.60
2022-10-23T10:21:12.775Z,13.30
2022-10-23T10:23:50.620Z,14.20
2022-10-23T10:26:44.381Z,14.90
2022-10-23T10:29:58.593Z,12.80
2022-10-23T10:32:43.510Z,13.50
2022-10-23T10:35:25.716Z,14.10
2022-10-23T10:38:11.728Z,13.50
2022-10-23T10:40:51.789Z,13.80
2022-10-23T10:43:34.365Z,13.80
2022-10-23T10:46:32.088Z,14.20
2022-10-23T10:49:11.078Z,13.90
2022-10-23T10:52:19.625Z,14.40
2022-10-23T10:55:12.380Z,13.70
2022-10-23T10:57:45.346Z,12.80
2022-10-23T11:00:18.096Z,14.10
2022-10-23T11:02:49.576Z,13.10
2022-10-23T11:05:33.858Z,12.50
2022-10-23T11:08:11.971Z,13.30
2022-10-23T11:10:44.601Z,12.70
2022-10-23T11:13:23.487Z,13.50
2022-10-23T11:18:28.758Z,12.90
2022-10-23T11:21:08.496Z,13.20
2022-10-23T11:24:04.252Z,12.60
2022-10-23T11:26:32.039Z,13.40
2022-10-23T11:29:19.167Z,15.20
2022-10-23T11:32:01.949Z,14.20
2022-10-23T11:34:52.155Z,13.70
2022-10-23T11:37:21.149Z,12.00
2022-10-23T11:40:22.420Z,13.00
2022-10-23T11:42:51.634Z,12.30
2022-10-23T11:45:37.259Z,12.10
2022-10-23T11:48:26.621Z,11.70
2022-10-23T11:50:55.761Z,12.20
2022-10-23T11:53:32.698Z,11.90
2022-10-23T11:56:23.601Z,11.40
2022-10-23T11:58:59.272Z,11.20
2022-10-23T12:01:45.860Z,11.40
2022-10-23T12:04:13.893Z,10.30
2022-10-23T12:06:46.608Z,10.40
2022-10-23T12:09:41.305Z,9.90
2022-10-23T12:12:09.047Z,10.30
2022-10-23T12:14:49.165Z,11.10
2022-10-23T12:17:23.244Z,9.10
2022-10-23T12:19:55.994Z,9.90
2022-10-23T12:22:32.943Z,9.80
2022-10-23T12:25:08.610Z,9.50
2022-10-23T12:27:59.233Z,9.30
2022-10-23T12:30:42.499Z,10.80
2022-10-23T12:33:20.014Z,9.00
2022-10-23T12:36:04.299Z,9.90
2022-10-23T12:38:36.336Z,9.00
2022-10-23T12:41:17.040Z,9.60
2022-10-23T12:43:53.883Z,10.00
2022-10-23T12:46:41.272Z,9.40
2022-10-23T12:49:19.561Z,8.90
2022-10-23T12:52:14.555Z,13.30
2022-10-23T12:54:42.670Z,8.40
2022-10-23T12:57:27.338Z,9.10
2022-10-23T13:00:03.649Z,9.10
2022-10-23T13:02:34.053Z,9.20
2022-10-23T13:05:08.108Z,8.30
2022-10-23T13:07:42.733Z,8.40
2022-10-23T13:10:15.345Z,10.30
2022-10-23T13:13:02.838Z,8.80
2022-10-23T13:15:45.511Z,7.90
2022-10-23T13:18:15.716Z,8.60
2022-10-23T13:20:57.642Z,8.50
2022-10-23T13:23:31.454Z,7.80
2022-10-23T13:26:02.624Z,9.30
2022-10-23T13:28:42.168Z,8.10
2022-10-23T13:31:10.163Z,7.20
2022-10-23T13:33:44.096Z,8.20
2022-10-23T13:36:14.882Z,8.10
2022-10-23T13:38:59.221Z,8.20
2022-10-23T13:41:31.358Z,7.70
2022-10-23T13:43:59.172Z,8.60
2022-10-23T13:46:27.261Z,7.40
2022-10-23T13:48:55.265Z,7.30
2022-10-23T13:51:26.449Z,7.20
2022-10-23T13:53:56.506Z,7.60
2022-10-23T13:56:26.744Z,7.30
2022-10-23T13:58:54.544Z,6.90
2022-10-23T14:01:26.869Z,7.10
2022-10-23T14:03:56.879Z,7.80
2022-10-23T14:06:25.204Z,7.80
2022-10-23T14:08:53.300Z,7.30
2022-10-23T14:11:21.625Z,6.90
2022-10-23T14:13:50.135Z,6.50
2022-10-23T14:16:30.534Z,7.50
2022-10-23T14:18:58.581Z,7.10
2022-10-23T14:21:26.683Z,7.30
2022-10-23T14:23:54.660Z,6.90
2022-10-23T14:26:25.781Z,7.00
2022-10-23T14:28:55.638Z,6.70
2022-10-23T14:31:24.430Z,7.20
2022-10-23T14:33:58.920Z,6.50
2022-10-23T14:36:31.073Z,6.70
2022-10-23T14:39:06.888Z,6.40
2022-10-23T14:41:35.162Z,7.10
2022-10-23T14:44:02.991Z,7.00
2022-10-23T14:46:31.221Z,8.00
2022-10-23T14:49:02.316Z,7.40
2022-10-23T14:51:30.969Z,9.10
2022-10-23T14:54:06.960Z,9.00
2022-10-23T14:56:38.016Z,8.40
2022-10-23T14:59:06.587Z,9.30
2022-10-23T15:01:48.413Z,9.50
2022-10-23T15:04:22.398Z,8.80
2022-10-23T15:06:50.241Z,8.90
2022-10-23T15:09:20.325Z,9.10
2022-10-23T15:11:48.723Z,8.40
2022-10-23T15:14:16.544Z,8.80
2022-10-23T15:16:44.420Z,8.30
2022-10-23T15:19:18.199Z,8.60
2022-10-23T15:21:48.078Z,9.20
2022-10-23T15:24:17.912Z,10.00
2022-10-23T15:26:45.734Z,8.50
2022-10-23T15:29:15.126Z,8.80
2022-10-23T15:31:47.972Z,8.80
2022-10-23T15:34:21.032Z,9.30
2022-10-23T15:36:49.258Z,9.40
2022-10-23T15:39:20.642Z,9.40
2022-10-23T15:41:51.586Z,9.60
2022-10-23T15:44:21.019Z,9.70
2022-10-23T15:46:49.776Z,9.50
2022-10-23T15:49:19.285Z,10.60
2022-10-23T15:51:47.281Z,10.00
2022-10-23T15:54:19.205Z,15.00
2022-10-23T15:56:50.068Z,42.20
2022-10-23T15:59:20.743Z,31.20
2022-10-23T16:04:18.015Z,68.20
2022-10-23T16:06:46.101Z,62.70
2022-10-23T16:09:14.290Z,72.20
2022-10-23T16:11:43.413Z,80.50
2022-10-23T16:14:16.686Z,32.70
2022-10-23T16:16:44.921Z,23.70
2022-10-23T16:19:13.263Z,22.40
2022-10-23T16:21:42.031Z,20.00
2022-10-23T16:24:10.575Z,28.90
2022-10-23T16:26:39.314Z,39.70
2022-10-23T16:29:09.312Z,57.40
2022-10-23T16:31:37.821Z,43.90
2022-10-23T16:34:06.691Z,50.00
2022-10-23T16:36:35.090Z,28.20
2022-10-23T16:39:28.729Z,20.00
2022-10-23T16:42:15.332Z,20.90
2022-10-23T16:45:15.820Z,19.50
2022-10-23T16:47:43.833Z,19.00
2022-10-23T16:50:11.666Z,20.00
2022-10-23T16:52:39.666Z,20.50
2022-10-23T16:55:08.613Z,19.70
2022-10-23T16:57:36.865Z,19.50
2022-10-23T17:00:06.773Z,19.20
2022-10-23T17:02:37.520Z,19.60
2022-10-23T17:05:05.975Z,19.20
2022-10-23T17:07:33.887Z,18.90
2022-10-23T17:10:01.902Z,18.70
2022-10-23T17:12:30.177Z,19.70
2022-10-23T17:14:58.228Z,19.40
2022-10-23T17:17:26.002Z,20.20
2022-10-23T17:19:53.888Z,19.60
2022-10-23T17:22:21.937Z,22.50
2022-10-23T17:24:53.037Z,25.40
2022-10-23T17:27:22.290Z,26.30
2022-10-23T17:29:50.309Z,24.50
2022-10-23T17:32:18.174Z,22.40
2022-10-23T17:34:46.799Z,22.00
2022-10-23T17:37:14.721Z,27.30
2022-10-23T17:39:43.052Z,25.80
2022-10-23T17:42:11.584Z,37.00
2022-10-23T17:44:39.515Z,32.90
2022-10-23T17:47:07.667Z,18.50
2022-10-23T17:49:35.747Z,26.00
2022-10-23T17:52:04.762Z,25.10
2022-10-23T17:54:32.858Z,25.40
2022-10-23T17:57:00.627Z,26.30
2022-10-23T17:59:28.650Z,33.90
2022-10-23T18:01:59.090Z,31.80
2022-10-23T18:06:55.117Z,30.00
2022-10-23T18:09:23.557Z,36.40
2022-10-23T18:11:52.017Z,40.10
2022-10-23T18:14:21.567Z,41.90
2022-10-23T18:16:51.212Z,42.60
2022-10-23T18:19:19.592Z,38.90
2022-10-23T18:21:48.241Z,38.40
2022-10-23T18:24:16.605Z,38.20
2022-10-23T18:26:46.308Z,35.30
2022-10-23T18:29:17.473Z,34.30
2022-10-23T18:31:48.327Z,35.80
2022-10-23T18:34:24.411Z,34.90
2022-10-23T18:36:54.570Z,33.10
2022-10-23T18:39:25.192Z,33.10
2022-10-23T18:41:56.203Z,33.20
2022-10-23T18:44:26.967Z,33.30
2022-10-23T18:46:57.344Z,28.10
2022-10-23T18:49:25.915Z,32.50
2022-10-23T18:51:54.293Z,34.60
2022-10-23T18:54:22.507Z,34.70
2022-10-23T18:56:50.338Z,35.60
2022-10-23T18:59:20.625Z,34.70
2022-10-23T19:01:49.203Z,38.80
2022-10-23T19:04:18.687Z,35.30
2022-10-23T19:06:49.010Z,33.80
2022-10-23T19:09:17.554Z,33.90
2022-10-23T19:11:45.846Z,33.20
2022-10-23T19:14:13.786Z,32.10
2022-10-23T19:16:55.701Z,33.10
2022-10-23T19:19:28.778Z,30.40
2022-10-23T19:21:57.713Z,32.60
2022-10-23T19:24:36.909Z,30.40
2022-10-23T19:27:05.605Z,28.50
2022-10-23T19:29:33.771Z,29.20
2022-10-23T19:32:01.853Z,27.50
2022-10-23T19:34:29.964Z,26.90
2022-10-23T19:36:58.057Z,25.60
2022-10-23T19:39:27.098Z,25.90
2022-10-23T19:41:55.271Z,23.80
2022-10-23T19:44:23.467Z,23.90
2022-10-23T19:46:51.406Z,22.50
2022-10-23T19:49:19.599Z,22.00
2022-10-23T19:51:51.183Z,21.20
2022-10-23T19:54:21.158Z,22.60
2022-10-23T19:56:49.366Z,22.60
2022-10-23T19:59:17.516Z,20.60
2022-10-23T20:01:48.217Z,19.10
2022-10-23T20:04:18.311Z,21.00
2022-10-23T20:06:47.636Z,19.80
2022-10-23T20:09:15.620Z,21.30
2022-10-23T20:11:45.600Z,20.20
2022-10-23T20:14:13.883Z,20.10
2022-10-23T20:16:45.195Z,19.70
2022-10-23T20:21:49.904Z,21.30
2022-10-23T20:24:20.568Z,19.80
2022-10-23T20:26:51.937Z,21.60
2022-10-23T20:29:20.012Z,21.70
2022-10-23T20:31:48.534Z,21.40
2022-10-23T20:34:17.555Z,21.40
2022-10-23T20:36:48.640Z,21.10
2022-10-23T20:39:24.599Z,23.80
2022-10-23T20:41:55.271Z,21.60
2022-10-23T20:46:52.597Z,20.20
2022-10-23T20:49:21.394Z,22.40
2022-10-23T20:51:55.720Z,21.80
2022-10-23T20:54:26.118Z,20.50
2022-10-23T20:56:54.524Z,21.00
2022-10-23T20:59:22.935Z,20.70
2022-10-23T21:01:53.317Z,20.10
2022-10-23T21:04:26.561Z,20.00
2022-10-23T21:07:12.814Z,18.90
2022-10-23T21:09:40.687Z,17.60
2022-10-23T21:12:09.439Z,18.70
2022-10-23T21:14:37.404Z,19.10
2022-10-23T21:17:05.552Z,19.00
2022-10-23T21:19:33.795Z,18.80
2022-10-23T21:22:01.847Z,18.00
2022-10-23T21:24:29.721Z,19.30
2022-10-23T21:26:57.809Z,18.70
2022-10-23T21:29:25.633Z,18.60
2022-10-23T21:32:02.676Z,18.30
2022-10-23T21:34:31.086Z,17.30
2022-10-23T21:37:15.223Z,15.50
2022-10-23T21:39:44.607Z,15.80
2022-10-23T21:42:15.325Z,16.80
2022-10-23T21:47:11.715Z,16.20
2022-10-23T21:49:39.473Z,16.60
2022-10-23T21:52:07.578Z,17.30
2022-10-23T21:54:35.385Z,17.20
2022-10-23T21:57:03.485Z,17.10
2022-10-23T21:59:35.600Z,15.50
2022-10-23T22:02:04.738Z,15.70
2022-10-23T22:04:32.721Z,15.40
2022-10-23T22:07:02.709Z,16.10
2022-10-23T22:09:31.989Z,16.70
2022-10-23T22:12:00.964Z,15.00
2022-10-23T22:14:28.928Z,15.80
2022-10-23T22:16:57.065Z,15.10
2022-10-23T22:19:25.517Z,15.10
2022-10-23T22:21:53.475Z,13.70
2022-10-23T22:24:21.611Z,14.50
2022-10-23T22:26:53.615Z,15.10
2022-10-23T22:29:24.392Z,14.10
2022-10-23T22:31:53.448Z,13.90
2022-10-23T22:34:47.737Z,14.80
2022-10-23T22:37:13.149Z,15.20
2022-10-23T22:39:41.369Z,14.70
2022-10-23T22:42:09.640Z,15.30
2022-10-23T22:44:37.912Z,14.30
2022-10-23T22:47:06.614Z,14.60
2022-10-23T22:49:34.451Z,13.60
2022-10-23T22:52:02.630Z,14.10
2022-10-23T22:54:31.656Z,12.40
2022-10-23T22:56:59.606Z,12.40
2022-10-23T22:59:27.368Z,12.10
2022-10-23T23:01:55.165Z,11.50
2022-10-23T23:04:39.350Z,11.20
2022-10-23T23:07:12.019Z,10.70
2022-10-23T23:09:42.616Z,10.40
2022-10-23T23:14:40.150Z,10.80
2022-10-23T23:17:08.392Z,10.70
2022-10-23T23:19:36.569Z,9.70
2022-10-23T23:22:04.841Z,9.60
2022-10-23T23:24:33.301Z,9.80
2022-10-23T23:27:01.066Z,10.20
2022-10-23T23:29:29.690Z,10.00
2022-10-23T23:31:57.848Z,9.30
2022-10-23T23:34:25.998Z,9.90
2022-10-23T23:36:53.846Z,9.70
2022-10-23T23:39:21.802Z,9.80
2022-10-23T23:41:49.981Z,10.30
2022-10-23T23:44:17.827Z,8.70
2022-10-23T23:46:46.173Z,8.70
2022-10-23T23:49:14.390Z,7.70
2022-10-23T23:51:42.216Z,8.60
2022-10-23T23:54:10.096Z,8.50
2022-10-23T23:56:38.219Z,8.50
2022-10-23T23:59:06.075Z,8.30
